Time;durP1;ratioP1;P1;durP2;ratioP2;P2;SDS_P1;SDS_P2;PMS_P1;PMS_P2;Temp;Humidity;BMP_temperature;BMP_pressure;BME280_temperature;BME280_humidity;BME280_pressure;Samples;Min_cycle;Max_cycle;Signal;HPM_P1;HPM_P2
2022/11/12 00:02:21;;;;;;;25.52;15.10;;;9.20;99.90;;;;;;5053179;28;20078;-62
2022/11/12 00:04:46;;;;;;;32.45;15.85;;;10.00;99.90;;;;;;5053205;28;20045;-62
2022/11/12 00:07:13;;;;;;;21.45;15.43;;;10.20;99.90;;;;;;5053190;28;20064;-62
2022/11/12 00:09:38;;;;;;;24.92;16.95;;;10.20;99.90;;;;;;5052155;28;20036;-62
2022/11/12 00:12:04;;;;;;;26.38;17.20;;;10.20;99.90;;;;;;5051776;28;20059;-62
2022/11/12 00:14:30;;;;;;;27.20;15.52;;;9.20;99.90;;;;;;5052764;28;20046;-62
2022/11/12 00:16:55;;;;;;;24.38;13.88;;;9.30;99.90;;;;;;5047589;28;20041;-61
2022/11/12 00:19:20;;;;;;;24.10;14.45;;;10.00;99.90;;;;;;5046701;28;20044;-62
2022/11/12 00:21:46;;;;;;;20.80;12.88;;;8.80;99.90;;;;;;5052974;28;20441;-61
2022/11/12 00:24:12;;;;;;;22.85;13.52;;;8.90;99.90;;;;;;5052761;28;20051;-62
2022/11/12 00:26:37;;;;;;;27.95;15.77;;;8.80;99.90;;;;;;5051487;28;20040;-62
2022/11/12 00:29:03;;;;;;;22.92;15.63;;;8.90;99.90;;;;;;5047099;28;20037;-62
2022/11/12 00:31:28;;;;;;;26.55;15.77;;;8.90;99.90;;;;;;5051610;28;20048;-62
2022/11/12 00:33:54;;;;;;;29.60;17.08;;;10.20;99.90;;;;;;5052628;28;20380;-61
2022/11/12 00:36:19;;;;;;;26.83;17.20;;;9.90;99.90;;;;;;5048673;28;20529;-62
2022/11/12 00:38:45;;;;;;;24.73;15.25;;;9.80;99.90;;;;;;5048024;28;20041;-62
2022/11/12 00:41:10;;;;;;;23.90;15.70;;;10.40;99.90;;;;;;5032652;28;20041;-62
2022/11/12 00:43:36;;;;;;;26.13;16.30;;;8.90;99.90;;;;;;5026488;28;20497;-62
2022/11/12 00:46:01;;;;;;;24.90;16.30;;;8.80;99.90;;;;;;5051295;28;20084;-62
2022/11/12 00:48:27;;;;;;;21.75;14.43;;;9.20;99.90;;;;;;5047781;28;20044;-62
2022/11/12 00:50:59;;;;;;;26.88;15.05;;;10.40;99.90;;;;;;5052297;28;20087;-62
2022/11/12 00:53:25;;;;;;;26.20;15.50;;;9.00;99.90;;;;;;5051072;28;20086;-62
2022/11/12 00:55:50;;;;;;;27.85;16.58;;;8.90;99.90;;;;;;5052222;28;20502;-62
2022/11/12 00:58:16;;;;;;;27.63;16.75;;;8.90;99.90;;;;;;5051141;28;20076;-62
2022/11/12 01:00:41;;;;;;;26.67;15.90;;;9.00;99.90;;;;;;5050682;28;20045;-62
2022/11/12 01:03:07;;;;;;;26.23;15.88;;;9.50;99.90;;;;;;5050111;28;20044;-61
2022/11/12 01:05:33;;;;;;;26.70;14.98;;;9.80;99.90;;;;;;5051507;28;20043;-62
2022/11/12 01:07:59;;;;;;;21.90;15.65;;;10.30;99.90;;;;;;5051705;28;20037;-62
2022/11/12 01:10:24;;;;;;;21.88;15.50;;;9.10;99.90;;;;;;5051961;28;20041;-62
2022/11/12 01:12:50;;;;;;;22.52;14.90;;;10.30;99.90;;;;;;5052059;28;20462;-62
2022/11/12 01:15:15;;;;;;;24.08;14.52;;;10.30;99.90;;;;;;5051683;28;20478;-62
2022/11/12 01:17:41;;;;;;;22.63;14.15;;;8.80;99.90;;;;;;5050516;28;20071;-62
2022/11/12 01:20:07;;;;;;;31.35;14.50;;;8.50;99.90;;;;;;5052229;28;20383;-61
2022/11/12 01:22:32;;;;;;;25.80;14.43;;;9.00;99.90;;;;;;5052024;28;20398;-61
2022/11/12 01:24:58;;;;;;;22.60;13.80;;;9.60;99.90;;;;;;5050886;28;20033;-61
2022/11/12 01:27:23;;;;;;;26.13;14.80;;;8.20;99.90;;;;;;5051841;28;20033;-61
2022/11/12 01:29:49;;;;;;;26.98;14.95;;;8.00;99.90;;;;;;5040618;28;20040;-61
2022/11/12 01:32:14;;;;;;;29.23;15.38;;;9.30;99.90;;;;;;5051577;28;20098;-61
2022/11/12 01:34:40;;;;;;;27.10;16.13;;;9.20;99.90;;;;;;5050324;28;20151;-62
2022/11/12 01:37:06;;;;;;;34.15;17.20;;;8.40;99.90;;;;;;5051909;28;20045;-62
2022/11/12 01:39:31;;;;;;;25.08;15.23;;;8.50;99.90;;;;;;5051783;28;20672;-61
2022/11/12 01:41:57;;;;;;;26.25;16.17;;;8.40;99.90;;;;;;5051823;28;20048;-62
2022/11/12 01:44:25;;;;;;;24.45;15.90;;;8.90;99.90;;;;;;5051094;28;20052;-63
2022/11/12 01:47:16;;;;;;;22.02;14.95;;;9.70;99.90;;;;;;5035105;28;20057;-62
2022/11/12 01:50:00;;;;;;;26.80;16.08;;;9.10;99.90;;;;;;5030815;28;20087;-61
2022/11/12 01:52:34;;;;;;;23.30;14.93;;;9.70;99.90;;;;;;5031677;28;20042;-62
2022/11/12 01:55:06;;;;;;;25.65;15.30;;;9.80;99.90;;;;;;5035939;28;20093;-62
2022/11/12 01:57:38;;;;;;;19.25;13.80;;;9.90;99.90;;;;;;5051676;28;20061;-62
2022/11/12 02:00:07;;;;;;;34.10;15.00;;;9.00;99.90;;;;;;5051571;28;20041;-62
2022/11/12 02:02:35;;;;;;;24.77;14.77;;;8.80;99.90;;;;;;5050241;28;20033;-62
2022/11/12 02:05:03;;;;;;;30.08;15.02;;;9.20;99.90;;;;;;5050269;28;20052;-61
2022/11/12 02:07:30;;;;;;;23.27;15.25;;;10.20;99.90;;;;;;5051814;28;20072;-62
2022/11/12 02:09:59;;;;;;;29.63;15.68;;;10.10;99.90;;;;;;5051599;28;20044;-62
2022/11/12 02:15:09;;;;;;;23.33;14.35;;;9.70;99.90;;;;;;5053378;28;20048;-62
2022/11/12 02:17:35;;;;;;;30.23;17.17;;;9.80;99.90;;;;;;5054502;28;20498;-62
2022/11/12 02:20:01;;;;;;;25.50;14.80;;;10.00;99.90;;;;;;5055242;28;20119;-62
2022/11/12 02:22:26;;;;;;;23.52;14.40;;;9.60;99.90;;;;;;5055320;28;20055;-62
2022/11/12 02:24:52;;;;;;;29.35;14.45;;;10.00;99.90;;;;;;5053955;28;20124;-62
2022/11/12 02:27:18;;;;;;;27.27;15.40;;;9.70;99.90;;;;;;5051270;28;20041;-62
2022/11/12 02:29:46;;;;;;;23.98;15.60;;;11.00;99.90;;;;;;5054753;28;20045;-62
2022/11/12 02:32:13;;;;;;;26.42;15.00;;;10.30;99.90;;;;;;5054841;28;20039;-62
2022/11/12 02:34:39;;;;;;;24.13;15.13;;;9.80;99.90;;;;;;5053915;28;20069;-62
2022/11/12 02:37:06;;;;;;;26.05;14.00;;;11.10;99.90;;;;;;5053222;28;20542;-62
2022/11/12 02:39:31;;;;;;;25.17;12.50;;;11.10;99.90;;;;;;5053739;28;20084;-62
2022/11/12 02:41:57;;;;;;;25.70;12.57;;;10.30;99.90;;;;;;5054839;28;20406;-62
2022/11/12 02:44:23;;;;;;;23.38;13.70;;;11.20;99.90;;;;;;5053946;28;20045;-62
2022/11/12 02:46:48;;;;;;;24.00;13.18;;;9.90;99.90;;;;;;5053052;28;20033;-62
2022/11/12 02:49:14;;;;;;;27.27;14.98;;;10.70;99.90;;;;;;5054472;28;20162;-62
2022/11/12 02:51:40;;;;;;;23.90;15.40;;;10.40;99.90;;;;;;5054815;28;20041;-62
2022/11/12 02:54:05;;;;;;;24.92;15.20;;;11.10;99.90;;;;;;5054567;28;20387;-62
2022/11/12 02:56:31;;;;;;;32.03;15.50;;;9.90;99.90;;;;;;5051668;28;20542;-62
2022/11/12 02:58:57;;;;;;;34.13;15.70;;;11.40;99.90;;;;;;5054340;28;20535;-62
2022/11/12 03:01:22;;;;;;;24.50;14.02;;;10.00;99.90;;;;;;5054405;28;20406;-62
2022/11/12 03:03:48;;;;;;;24.70;13.77;;;11.50;99.90;;;;;;5053840;28;20037;-62
2022/11/12 03:06:13;;;;;;;34.78;15.98;;;10.40;99.90;;;;;;5053876;28;20040;-62
2022/11/12 03:08:39;;;;;;;36.28;18.08;;;11.70;99.90;;;;;;5054443;28;20032;-62
2022/11/12 03:11:07;;;;;;;35.08;17.17;;;11.00;99.90;;;;;;5054148;28;20052;-62
2022/11/12 03:13:32;;;;;;;44.72;18.90;;;11.70;99.90;;;;;;5053092;28;20087;-62
2022/11/12 03:15:59;;;;;;;43.30;18.90;;;11.60;99.90;;;;;;5049309;28;20037;-62
2022/11/12 03:18:25;;;;;;;43.05;17.83;;;11.70;99.90;;;;;;5042426;28;20044;-62
2022/11/12 03:20:51;;;;;;;47.42;17.85;;;11.70;99.90;;;;;;5054140;28;20044;-62
2022/11/12 03:23:17;;;;;;;41.08;19.27;;;10.80;99.90;;;;;;5053774;28;20041;-62
2022/11/12 03:25:42;;;;;;;39.17;18.73;;;11.60;99.90;;;;;;5051512;28;20040;-62
2022/11/12 03:28:11;;;;;;;48.72;20.20;;;11.80;99.90;;;;;;5053138;28;20088;-62
2022/11/12 03:30:39;;;;;;;68.07;22.65;;;11.90;99.90;;;;;;5047665;28;20045;-63
2022/11/12 03:33:06;;;;;;;76.85;24.27;;;12.00;99.90;;;;;;5034408;28;20045;-62
2022/11/12 03:35:33;;;;;;;104.55;26.23;;;11.80;99.90;;;;;;5052662;28;20075;-62
2022/11/12 03:37:59;;;;;;;106.45;27.27;;;10.90;99.90;;;;;;5053116;28;20120;-62
2022/11/12 03:40:26;;;;;;;93.78;27.60;;;12.00;99.90;;;;;;5053224;28;20076;-62
2022/11/12 03:42:52;;;;;;;101.85;26.27;;;12.00;99.90;;;;;;5053584;28;20116;-62
2022/11/12 03:45:20;;;;;;;70.13;24.63;;;10.90;99.90;;;;;;5052289;28;20036;-64
2022/11/12 03:47:48;;;;;;;96.25;25.48;;;11.30;99.90;;;;;;5048749;28;20041;-62
2022/11/12 03:50:15;;;;;;;158.52;28.15;;;11.10;99.90;;;;;;5045542;28;20033;-62
2022/11/12 03:52:48;;;;;;;218.48;31.20;;;11.40;99.90;;;;;;5051424;28;20033;-62
2022/11/12 03:55:16;;;;;;;216.25;30.05;;;11.30;99.90;;;;;;5053082;28;20036;-62
2022/11/12 03:57:42;;;;;;;185.48;28.02;;;11.10;99.90;;;;;;5053157;28;20091;-62
2022/11/12 04:00:10;;;;;;;229.38;30.85;;;11.40;99.90;;;;;;5052941;28;20521;-62
2022/11/12 04:02:36;;;;;;;554.88;41.60;;;11.10;99.90;;;;;;5052006;28;20040;-63
2022/11/12 04:08:36;;;;;;;692.65;46.97;;;11.60;99.90;;;;;;5052095;28;20246;-62
2022/11/12 04:11:03;;;;;;;313.58;29.50;;;11.20;99.90;;;;;;5047653;28;20127;-62
2022/11/12 04:13:28;;;;;;;279.25;26.17;;;11.40;99.90;;;;;;5052649;28;20118;-62
2022/11/12 04:21:54;;;;;;;370.55;33.22;;;12.30;99.90;;;;;;5052056;28;20126;-62
2022/11/12 04:27:22;;;;;;;518.13;37.97;;;11.50;99.90;;;;;;5051059;28;20490;-62
2022/11/12 04:32:39;;;;;;;751.20;46.35;;;11.20;99.90;;;;;;5049994;28;20052;-62
2022/11/12 04:35:06;;;;;;;684.72;47.35;;;12.00;99.90;;;;;;5052085;28;20072;-62
2022/11/12 04:37:43;;;;;;;628.80;43.17;;;12.00;99.90;;;;;;5050525;28;21338;-62
2022/11/12 04:45:40;;;;;;;548.40;39.03;;;12.30;99.90;;;;;;5034660;28;20060;-62
2022/11/12 04:48:06;;;;;;;495.95;33.92;;;11.20;99.90;;;;;;5051819;28;20452;-62
2022/11/12 04:50:32;;;;;;;458.20;35.78;;;12.20;99.90;;;;;;5052246;28;20092;-62
2022/11/12 04:52:57;;;;;;;431.67;31.33;;;11.30;99.90;;;;;;5051037;28;20462;-62
2022/11/12 04:55:23;;;;;;;521.38;37.88;;;11.30;99.90;;;;;;5052046;28;20037;-63
2022/11/12 04:57:49;;;;;;;499.88;35.75;;;11.20;99.90;;;;;;5032268;28;20040;-62
2022/11/12 05:00:15;;;;;;;401.65;33.10;;;11.20;99.90;;;;;;5032408;28;20033;-62
2022/11/12 05:02:40;;;;;;;601.75;39.78;;;11.10;99.90;;;;;;5049301;28;20446;-62
2022/11/12 05:05:06;;;;;;;349.67;29.23;;;11.70;99.90;;;;;;5050283;28;20056;-63
2022/11/12 05:07:32;;;;;;;327.60;28.25;;;11.50;99.90;;;;;;5051943;28;20044;-63
2022/11/12 05:09:58;;;;;;;330.00;29.65;;;11.10;99.90;;;;;;5051764;28;20095;-63
2022/11/12 05:12:23;;;;;;;593.58;40.58;;;12.10;99.90;;;;;;5049735;28;20056;-63
2022/11/12 05:14:49;;;;;;;321.20;29.65;;;11.30;99.90;;;;;;5051773;28;20411;-62
2022/11/12 05:17:14;;;;;;;582.72;43.42;;;11.90;99.90;;;;;;5051845;28;20037;-63
2022/11/12 05:19:40;;;;;;;437.48;36.65;;;12.00;99.90;;;;;;5051721;28;20041;-63
2022/11/12 05:22:05;;;;;;;651.42;41.58;;;11.10;99.90;;;;;;5051429;28;20398;-63
2022/11/12 05:24:40;;;;;;;670.05;47.00;;;11.10;99.90;;;;;;5049888;28;20073;-62
2022/11/12 05:27:11;;;;;;;727.17;48.72;;;11.10;99.90;;;;;;5049904;28;20417;-63
2022/11/12 05:29:37;;;;;;;613.00;42.67;;;11.90;99.90;;;;;;5041127;28;20041;-63
2022/11/12 05:32:04;;;;;;;633.38;42.13;;;11.20;99.90;;;;;;5062006;28;20033;-63
2022/11/12 05:34:29;;;;;;;591.60;42.13;;;12.10;99.90;;;;;;5051717;28;20041;-63
2022/11/12 05:36:55;;;;;;;316.38;30.33;;;11.10;99.90;;;;;;5049311;28;20045;-62
2022/11/12 05:39:21;;;;;;;375.23;32.13;;;12.20;99.90;;;;;;5051736;28;20116;-63
2022/11/12 05:41:47;;;;;;;300.33;28.20;;;11.60;99.90;;;;;;5049272;28;20040;-63
2022/11/12 05:44:12;;;;;;;447.33;33.08;;;12.10;99.90;;;;;;5051457;28;20394;-63
2022/11/12 05:46:38;;;;;;;285.15;27.50;;;12.20;99.90;;;;;;5051441;28;20037;-63
2022/11/12 05:49:03;;;;;;;567.92;38.30;;;11.40;99.90;;;;;;5054371;28;20045;-62
2022/11/12 05:51:29;;;;;;;608.47;40.53;;;11.20;99.90;;;;;;5053443;28;20033;-63
2022/11/12 05:53:55;;;;;;;683.05;44.72;;;11.10;99.90;;;;;;5055126;28;20045;-63
2022/11/12 05:56:20;;;;;;;451.73;41.90;;;11.90;99.90;;;;;;5053551;28;20406;-62
2022/11/12 05:58:46;;;;;;;453.67;42.47;;;12.00;99.90;;;;;;5054150;28;20125;-62
2022/11/12 06:01:11;;;;;;;154.68;28.30;;;11.50;99.90;;;;;;5053964;28;20048;-63
2022/11/12 06:03:37;;;;;;;115.80;28.67;;;11.90;99.90;;;;;;5053249;28;20033;-63
2022/11/12 06:06:03;;;;;;;121.85;32.47;;;11.00;99.90;;;;;;5055036;28;20029;-62
2022/11/12 06:08:28;;;;;;;79.43;29.13;;;11.00;99.90;;;;;;5055020;28;20045;-62
2022/11/12 06:10:55;;;;;;;87.97;31.08;;;11.70;99.90;;;;;;5055120;28;20457;-62
2022/11/12 06:13:23;;;;;;;57.13;26.73;;;11.70;99.90;;;;;;5054872;28;20439;-63
2022/11/12 06:15:48;;;;;;;94.93;34.03;;;11.10;99.90;;;;;;5054502;28;20391;-62
2022/11/12 06:18:14;;;;;;;104.72;36.22;;;11.10;99.90;;;;;;5054947;28;20044;-62
2022/11/12 06:20:40;;;;;;;87.80;31.98;;;10.60;99.90;;;;;;5055070;28;20083;-62
2022/11/12 06:23:05;;;;;;;102.55;37.53;;;11.50;99.90;;;;;;5054142;28;20032;-62
2022/11/12 06:25:31;;;;;;;110.65;38.47;;;11.50;99.90;;;;;;5053823;28;20029;-63
2022/11/12 06:27:56;;;;;;;141.00;43.38;;;11.40;99.90;;;;;;5048329;28;20116;-62
2022/11/12 06:30:22;;;;;;;112.75;37.67;;;10.70;99.90;;;;;;5047364;28;20036;-62
2022/11/12 06:32:48;;;;;;;123.40;39.47;;;11.50;99.90;;;;;;5053186;28;20029;-62
2022/11/12 06:35:16;;;;;;;89.55;36.30;;;10.80;99.90;;;;;;5055210;28;20029;-62
2022/11/12 06:37:41;;;;;;;108.30;39.72;;;10.60;99.90;;;;;;5052225;28;20037;-62
2022/11/12 06:40:07;;;;;;;127.60;41.40;;;10.90;99.90;;;;;;5054465;28;20033;-62
2022/11/12 06:42:33;;;;;;;142.07;41.55;;;10.90;99.90;;;;;;5036658;28;20166;-62
2022/11/12 06:44:59;;;;;;;128.68;43.28;;;11.50;99.90;;;;;;5054611;28;20037;-63
2022/11/12 06:47:24;;;;;;;112.38;41.20;;;11.60;99.90;;;;;;5052204;28;20367;-62
2022/11/12 06:49:50;;;;;;;193.25;46.63;;;11.50;99.90;;;;;;5054900;28;20037;-62
2022/11/12 06:52:16;;;;;;;150.13;45.60;;;11.30;99.90;;;;;;5054324;28;20214;-62
2022/11/12 06:54:41;;;;;;;168.25;48.55;;;11.30;99.90;;;;;;5053218;28;20402;-62
2022/11/12 06:57:07;;;;;;;202.52;49.67;;;10.90;99.90;;;;;;5052399;28;20103;-62
2022/11/12 06:59:32;;;;;;;176.00;50.33;;;11.40;99.90;;;;;;5053090;28;20036;-62
2022/11/12 07:01:58;;;;;;;193.82;49.67;;;11.00;99.90;;;;;;5053155;28;20518;-62
2022/11/12 07:04:24;;;;;;;153.93;43.45;;;11.70;99.90;;;;;;5049900;28;20048;-63
2022/11/12 07:06:50;;;;;;;235.65;51.95;;;10.70;99.90;;;;;;5053872;28;20423;-62
2022/11/12 07:09:15;;;;;;;220.48;51.00;;;11.70;99.90;;;;;;5033322;28;20041;-63
2022/11/12 07:11:41;;;;;;;140.80;43.50;;;11.70;99.90;;;;;;5053318;28;20053;-62
2022/11/12 07:14:07;;;;;;;187.98;46.35;;;11.70;99.90;;;;;;5052239;28;20045;-62
2022/11/12 07:16:33;;;;;;;147.98;39.90;;;11.30;99.90;;;;;;5053263;28;20043;-62
2022/11/12 07:18:59;;;;;;;133.57;39.28;;;11.50;99.90;;;;;;5053909;28;20037;-62
2022/11/12 07:21:25;;;;;;;162.27;39.85;;;10.80;99.90;;;;;;5053700;28;20036;-62
2022/11/12 07:23:51;;;;;;;437.33;50.00;;;10.70;99.90;;;;;;5051975;28;20053;-62
2022/11/12 07:26:19;;;;;;;364.27;47.75;;;11.40;99.90;;;;;;5049362;28;20038;-62
2022/11/12 07:28:46;;;;;;;409.42;48.17;;;11.60;99.90;;;;;;5051024;28;20037;-62
2022/11/12 07:31:13;;;;;;;382.13;46.05;;;11.50;99.90;;;;;;5049755;28;20497;-62
2022/11/12 07:33:39;;;;;;;305.85;42.80;;;11.50;99.90;;;;;;5050759;28;20044;-63
2022/11/12 07:36:07;;;;;;;249.05;35.67;;;10.80;99.90;;;;;;5068010;28;20033;-63
2022/11/12 07:38:35;;;;;;;249.80;36.72;;;10.70;99.90;;;;;;5051854;28;20037;-63
2022/11/12 07:41:06;;;;;;;177.43;32.42;;;10.70;99.90;;;;;;5043187;28;20033;-62
2022/11/12 07:43:32;;;;;;;365.10;37.45;;;11.50;99.90;;;;;;5049837;28;20571;-62
2022/11/12 07:46:04;;;;;;;251.50;34.05;;;11.40;99.90;;;;;;5053076;28;20036;-63
2022/11/12 07:48:30;;;;;;;274.27;36.20;;;10.80;99.90;;;;;;5047448;28;20044;-62
2022/11/12 07:51:03;;;;;;;410.88;38.92;;;11.30;99.90;;;;;;5049893;28;20072;-62
2022/11/12 07:53:29;;;;;;;209.93;32.80;;;11.30;99.90;;;;;;5047601;28;20409;-62
2022/11/12 07:55:56;;;;;;;374.88;40.88;;;10.60;99.90;;;;;;5045477;28;21313;-62
2022/11/12 07:58:23;;;;;;;429.55;43.40;;;11.50;99.90;;;;;;5051166;28;20033;-62
2022/11/12 08:00:49;;;;;;;625.60;49.97;;;10.50;99.90;;;;;;5052440;28;20437;-62
2022/11/12 08:03:15;;;;;;;529.83;46.88;;;11.30;99.90;;;;;;5049624;28;20080;-62
2022/11/12 08:05:41;;;;;;;344.95;39.17;;;10.60;99.90;;;;;;5047832;28;20656;-63
2022/11/12 08:08:06;;;;;;;162.32;30.85;;;10.60;99.90;;;;;;5052506;28;20110;-63
2022/11/12 08:10:32;;;;;;;296.10;34.65;;;10.90;99.90;;;;;;5050032;28;20102;-63
2022/11/12 08:12:57;;;;;;;230.15;34.30;;;11.50;99.90;;;;;;5044783;28;20037;-64
2022/11/12 08:15:23;;;;;;;309.38;39.42;;;10.80;99.90;;;;;;5048868;28;20094;-62
2022/11/12 08:17:49;;;;;;;277.75;33.65;;;11.40;99.90;;;;;;5022820;28;20045;-63
2022/11/12 08:20:14;;;;;;;176.02;30.05;;;11.10;99.90;;;;;;5044400;28;20106;-63
2022/11/12 08:22:40;;;;;;;290.13;34.38;;;10.70;99.90;;;;;;5046387;28;20040;-63
2022/11/12 08:25:06;;;;;;;232.85;34.85;;;11.20;99.90;;;;;;5051693;28;20036;-62
2022/11/12 08:27:32;;;;;;;158.30;31.23;;;10.70;99.90;;;;;;5049865;28;20131;-63
2022/11/12 08:29:58;;;;;;;320.15;36.30;;;10.60;99.90;;;;;;5046892;28;20037;-62
2022/11/12 08:32:23;;;;;;;278.40;36.47;;;10.50;99.90;;;;;;5048650;28;20041;-63
2022/11/12 08:34:49;;;;;;;145.40;28.42;;;11.40;99.90;;;;;;5051378;28;20045;-63
2022/11/12 08:37:15;;;;;;;180.43;32.20;;;10.80;99.90;;;;;;5052371;28;20546;-63
2022/11/12 08:39:40;;;;;;;232.07;34.90;;;10.80;99.90;;;;;;5045151;28;20128;-62
2022/11/12 08:42:06;;;;;;;101.75;24.55;;;11.50;99.90;;;;;;5047344;28;20036;-63
2022/11/12 08:44:31;;;;;;;102.43;27.05;;;10.80;99.90;;;;;;5051381;28;20468;-62
2022/11/12 08:46:58;;;;;;;261.55;32.03;;;11.40;99.90;;;;;;5049237;28;20498;-62
2022/11/12 08:49:24;;;;;;;181.00;32.00;;;10.60;99.90;;;;;;5048553;28;20402;-63
2022/11/12 08:51:49;;;;;;;99.32;28.58;;;10.60;99.90;;;;;;5043813;28;20029;-62
2022/11/12 08:54:15;;;;;;;47.33;22.77;;;10.50;99.90;;;;;;5048754;28;20063;-62
2022/11/12 08:56:40;;;;;;;56.65;24.42;;;11.10;99.90;;;;;;5044421;28;20037;-63
2022/11/12 08:59:06;;;;;;;42.50;21.05;;;10.80;99.90;;;;;;5046472;28;20036;-63
2022/11/12 09:01:32;;;;;;;62.50;24.98;;;10.50;99.90;;;;;;5049643;28;20454;-62
2022/11/12 09:03:58;;;;;;;136.10;30.35;;;11.30;99.90;;;;;;5045443;28;20398;-63
2022/11/12 09:06:23;;;;;;;155.15;31.30;;;11.10;99.90;;;;;;5046896;28;20048;-62
2022/11/12 09:08:49;;;;;;;173.15;31.73;;;10.50;99.90;;;;;;5048085;28;20032;-62
2022/11/12 09:11:14;;;;;;;148.82;29.02;;;10.70;99.90;;;;;;5031984;28;20069;-62
2022/11/12 09:13:40;;;;;;;145.85;31.95;;;10.50;99.90;;;;;;5046833;28;20095;-63
2022/11/12 09:16:08;;;;;;;159.85;32.78;;;11.40;99.90;;;;;;5046024;28;20051;-62
2022/11/12 09:18:34;;;;;;;99.05;25.83;;;10.50;99.90;;;;;;5048448;28;20041;-62
2022/11/12 09:21:05;;;;;;;73.97;23.75;;;10.50;99.90;;;;;;5045983;28;20461;-62
2022/11/12 09:23:33;;;;;;;63.22;22.23;;;10.40;99.90;;;;;;5045358;28;20047;-63
2022/11/12 09:25:59;;;;;;;80.10;23.73;;;10.60;99.90;;;;;;5040694;28;20040;-62
2022/11/12 09:28:24;;;;;;;139.68;30.52;;;10.90;99.90;;;;;;5044869;28;20423;-62
2022/11/12 09:30:51;;;;;;;125.82;29.13;;;10.70;99.90;;;;;;5048000;28;20063;-62
2022/11/12 09:33:20;;;;;;;276.75;34.13;;;10.70;99.90;;;;;;5050179;28;20124;-63
2022/11/12 09:35:46;;;;;;;294.73;34.80;;;10.20;99.90;;;;;;5048510;28;20037;-62
2022/11/12 09:38:16;;;;;;;231.45;35.78;;;10.30;99.90;;;;;;5051788;28;20040;-62
2022/11/12 09:40:51;;;;;;;222.98;35.05;;;10.20;99.90;;;;;;5048560;28;20036;-62
2022/11/12 09:43:33;;;;;;;98.82;28.63;;;10.90;99.90;;;;;;5048310;28;20056;-62
2022/11/12 09:46:18;;;;;;;145.13;32.28;;;10.20;99.90;;;;;;5047810;28;20044;-62
2022/11/12 09:48:50;;;;;;;253.10;37.97;;;10.40;99.90;;;;;;5045993;28;20546;-63
2022/11/12 09:51:24;;;;;;;145.82;31.08;;;10.70;99.90;;;;;;5046320;28;20077;-62
2022/11/12 09:53:55;;;;;;;188.82;33.42;;;10.70;99.90;;;;;;5047154;28;20095;-62
2022/11/12 09:56:22;;;;;;;231.38;35.65;;;10.40;99.90;;;;;;5047652;28;20049;-62
2022/11/12 09:58:48;;;;;;;179.23;33.58;;;10.00;99.90;;;;;;5043742;28;20126;-62
2022/11/12 10:01:39;;;;;;;184.98;31.23;;;10.90;99.90;;;;;;5043991;28;20469;-62
2022/11/12 10:04:17;;;;;;;392.40;41.28;;;10.90;99.90;;;;;;5043230;28;20441;-62
2022/11/12 10:07:08;;;;;;;243.65;36.33;;;10.40;99.90;;;;;;5047842;28;20032;-62
2022/11/12 10:09:47;;;;;;;188.27;34.03;;;10.30;99.90;;;;;;5039086;28;20036;-63
2022/11/12 10:13:07;;;;;;;151.13;33.03;;;10.60;99.90;;;;;;5044003;28;20052;-62
2022/11/12 10:19:15;;;;;;;81.43;31.15;;;11.10;99.90;;;;;;5042215;28;20055;-62
2022/11/12 10:22:08;;;;;;;91.88;33.22;;;11.00;99.90;;;;;;5047234;28;20445;-64
2022/11/12 10:24:36;;;;;;;81.82;30.70;;;10.80;99.90;;;;;;5043724;28;20036;-62
2022/11/12 10:27:19;;;;;;;115.22;33.58;;;10.30;99.90;;;;;;5046989;28;20029;-62
2022/11/12 10:30:04;;;;;;;53.85;25.83;;;10.20;99.90;;;;;;5043306;28;20029;-63
2022/11/12 10:32:29;;;;;;;72.45;28.38;;;11.00;99.90;;;;;;5046948;28;20079;-64
2022/11/12 10:34:55;;;;;;;57.67;25.67;;;11.80;99.90;;;;;;5042938;28;20036;-63
2022/11/12 10:37:36;;;;;;;109.20;31.60;;;11.10;99.90;;;;;;5047369;28;20044;-62
2022/11/12 10:40:21;;;;;;;74.57;30.10;;;10.30;99.90;;;;;;5050855;28;20037;-62
2022/11/12 10:43:00;;;;;;;121.28;34.53;;;10.20;99.90;;;;;;5051420;28;20071;-63
2022/11/12 10:45:26;;;;;;;90.22;34.13;;;10.30;99.90;;;;;;5050469;28;20067;-63
2022/11/12 10:47:52;;;;;;;94.93;33.15;;;10.50;99.90;;;;;;5052734;28;20044;-63
2022/11/12 10:50:21;;;;;;;73.25;32.40;;;11.00;99.90;;;;;;5053594;28;20025;-66
2022/11/12 10:53:02;;;;;;;75.30;33.70;;;10.70;99.90;;;;;;5052203;28;20068;-62
2022/11/12 10:55:50;;;;;;;65.90;30.25;;;10.50;99.90;;;;;;5052612;28;20033;-62
2022/11/12 10:58:19;;;;;;;94.28;36.28;;;10.60;99.90;;;;;;5041380;28;20134;-63
2022/11/12 11:01:00;;;;;;;96.10;36.10;;;10.60;99.90;;;;;;5052331;28;20045;-62
2022/11/12 11:03:35;;;;;;;97.15;38.22;;;10.80;99.90;;;;;;5053090;28;20479;-62
2022/11/12 11:06:04;;;;;;;88.97;37.00;;;10.80;99.90;;;;;;5051895;28;20060;-62
2022/11/12 11:08:45;;;;;;;82.72;37.53;;;11.40;99.90;;;;;;5052611;28;20094;-62
2022/11/12 11:11:19;;;;;;;69.43;33.63;;;11.30;99.90;;;;;;5051983;28;20045;-62
2022/11/12 11:13:46;;;;;;;74.25;35.47;;;11.30;99.90;;;;;;5048206;28;20094;-62
2022/11/12 11:16:15;;;;;;;62.03;31.85;;;10.50;99.90;;;;;;5047921;28;20494;-62
2022/11/12 11:18:44;;;;;;;54.40;28.52;;;10.50;99.90;;;;;;5052110;28;20501;-62
2022/11/12 11:21:34;;;;;;;82.80;38.28;;;10.50;99.90;;;;;;5051333;28;20037;-62
2022/11/12 11:24:31;;;;;;;82.72;37.25;;;10.60;99.90;;;;;;5048780;28;20124;-62
2022/11/12 11:27:07;;;;;;;85.32;36.05;;;11.50;99.90;;;;;;5049178;28;20137;-62
2022/11/12 11:29:51;;;;;;;;;;;10.90;99.90;;;;;;5049124;28;20021;-62
2022/11/12 11:32:47;;;;;;;87.10;38.55;;;11.30;99.90;;;;;;5049965;28;20364;-62
2022/11/12 11:35:21;;;;;;;72.50;34.25;;;11.50;99.90;;;;;;5041276;28;20033;-63
2022/11/12 11:38:14;;;;;;;59.13;29.52;;;10.90;99.90;;;;;;5048016;28;20098;-62
2022/11/12 11:40:50;;;;;;;65.05;32.03;;;11.00;99.90;;;;;;5048078;28;20051;-62
2022/11/12 11:43:31;;;;;;;70.47;35.95;;;11.60;99.90;;;;;;5042988;28;20033;-63
2022/11/12 11:45:56;;;;;;;68.57;35.40;;;10.80;99.90;;;;;;5044085;28;20037;-63
2022/11/12 11:48:57;;;;;;;68.18;33.22;;;11.00;99.90;;;;;;5049995;28;20040;-63
2022/11/12 11:51:54;;;;;;;71.28;34.85;;;11.60;99.90;;;;;;5045378;28;20041;-63
2022/11/12 11:54:23;;;;;;;100.68;43.45;;;11.30;99.90;;;;;;5051675;28;20041;-63
2022/11/12 11:56:50;;;;;;;93.35;44.05;;;11.40;99.90;;;;;;5049859;28;20045;-63
2022/11/12 11:59:23;;;;;;;100.70;43.78;;;11.90;99.90;;;;;;5046812;28;20054;-63
2022/11/12 12:02:15;;;;;;;85.18;40.63;;;12.40;99.90;;;;;;5045978;28;20045;-63
2022/11/12 12:05:08;;;;;;;81.13;37.33;;;11.80;99.90;;;;;;5047427;28;20033;-63
2022/11/12 12:07:44;;;;;;;64.13;32.92;;;11.90;99.90;;;;;;5042317;28;20041;-63
2022/11/12 12:10:37;;;;;;;74.28;37.50;;;11.80;99.90;;;;;;5049068;28;20025;-63
2022/11/12 12:13:19;;;;;;;68.05;31.95;;;12.00;99.90;;;;;;5047806;28;20052;-64
2022/11/12 12:15:50;;;;;;;83.80;40.20;;;11.50;99.90;;;;;;5049275;28;20135;-63
2022/11/12 12:18:34;;;;;;;98.95;45.80;;;12.20;99.90;;;;;;5048604;28;20044;-63
2022/11/12 12:21:31;;;;;;;87.97;42.65;;;12.40;99.90;;;;;;5050361;28;20124;-63
2022/11/12 12:24:11;;;;;;;101.43;47.78;;;12.50;99.90;;;;;;5034167;28;20557;-63
2022/11/12 12:26:46;;;;;;;107.90;49.47;;;11.50;99.90;;;;;;5047909;28;20513;-63
2022/11/12 12:29:22;;;;;;;85.88;43.67;;;12.10;99.90;;;;;;5048821;28;20094;-63
2022/11/12 12:32:00;;;;;;;100.45;47.38;;;12.60;99.90;;;;;;5043758;28;20048;-62
2022/11/12 12:34:36;;;;;;;89.90;43.80;;;12.40;99.90;;;;;;5048228;28;20052;-63
2022/11/12 12:37:25;;;;;;;81.72;38.78;;;11.70;99.90;;;;;;5048711;28;20045;-63
2022/11/12 12:40:12;;;;;;;88.28;43.95;;;12.50;99.90;;;;;;5044873;28;20044;-63
2022/11/12 12:42:47;;;;;;;99.35;45.38;;;12.10;99.90;;;;;;5050267;28;20116;-63
2022/11/12 12:45:26;;;;;;;99.53;49.33;;;12.00;99.90;;;;;;5045818;28;20041;-63
2022/11/12 12:47:53;;;;;;;101.05;47.65;;;12.70;99.90;;;;;;5046630;28;20040;-63
2022/11/12 12:50:20;;;;;;;106.28;50.28;;;12.70;99.90;;;;;;5049854;28;20033;-63
2022/11/12 12:53:15;;;;;;;104.57;51.22;;;12.00;99.90;;;;;;5045491;28;20055;-63
2022/11/12 12:55:48;;;;;;;113.63;52.97;;;12.00;99.90;;;;;;5048839;28;20052;-63
2022/11/12 12:58:21;;;;;;;106.88;54.13;;;12.80;99.90;;;;;;5041750;28;20029;-63
2022/11/12 13:00:49;;;;;;;101.50;51.92;;;12.10;99.90;;;;;;5042701;28;20037;-63
2022/11/12 13:03:53;;;;;;;110.30;53.15;;;12.50;99.90;;;;;;5055970;28;20077;-63